Time;durP1;ratioP1;P1;durP2;ratioP2;P2;SDS_P1;SDS_P2;PMS_P1;PMS_P2;Temp;Humidity;BMP_temperature;BMP_pressure;BME280_temperature;BME280_humidity;BME280_pressure;Samples;Min_cycle;Max_cycle;Signal;HPM_P1;HPM_P2
2021/08/09 00:04:48;;;;;;;1.13;0.90;;;20.90;66.80;;;;;;10497439;28;20430;-63
2021/08/09 00:10:10;;;;;;;0.80;0.80;;;21.00;66.40;;;;;;10498896;28;20223;-62
2021/08/09 00:15:33;;;;;;;1.10;0.70;;;20.80;66.10;;;;;;10497164;28;20422;-62
2021/08/09 00:20:57;;;;;;;1.17;0.87;;;21.10;65.70;;;;;;10513997;28;20805;-63
2021/08/09 00:26:21;;;;;;;0.80;0.80;;;20.90;67.10;;;;;;10498166;28;20216;-63
2021/08/09 00:31:43;;;;;;;0.70;0.70;;;20.70;66.60;;;;;;10525038;28;20421;-61
2021/08/09 00:37:07;;;;;;;1.00;0.73;;;20.90;65.90;;;;;;10503162;28;20211;-63
2021/08/09 00:42:29;;;;;;;0.67;0.67;;;20.70;67.40;;;;;;10498708;28;20200;-62
2021/08/09 00:47:51;;;;;;;0.70;0.70;;;20.60;67.10;;;;;;10538890;28;20224;-60
2021/08/09 00:53:14;;;;;;;1.10;0.80;;;20.60;66.70;;;;;;10533578;28;20200;-62
2021/08/09 00:58:37;;;;;;;0.80;0.75;;;20.50;68.10;;;;;;10537759;28;20413;-62
2021/08/09 01:04:00;;;;;;;1.00;0.90;;;21.20;65.40;;;;;;10538784;28;20204;-63
2021/08/09 01:09:28;;;;;;;0.83;0.83;;;20.90;65.80;;;;;;10538097;28;20223;-63
2021/08/09 01:15:02;;;;;;;0.77;0.77;;;20.60;67.60;;;;;;10535593;28;20408;-63
2021/08/09 01:20:45;;;;;;;0.70;0.70;;;21.30;65.20;;;;;;10536615;28;20725;-63
2021/08/09 01:26:17;;;;;;;0.70;0.67;;;20.90;65.60;;;;;;10498193;28;20714;-63
2021/08/09 01:31:45;;;;;;;1.17;0.80;;;20.70;67.50;;;;;;10521594;28;20789;-62
2021/08/09 01:37:08;;;;;;;0.60;0.60;;;21.20;65.60;;;;;;10519431;28;20196;-63
2021/08/09 01:42:30;;;;;;;0.90;0.70;;;20.80;65.60;;;;;;10537902;28;20230;-62
2021/08/09 01:47:57;;;;;;;0.70;0.70;;;20.70;67.40;;;;;;10534410;28;20425;-62
2021/08/09 01:53:19;;;;;;;0.80;0.60;;;21.00;66.40;;;;;;10535975;28;20188;-62
2021/08/09 01:58:41;;;;;;;0.87;0.70;;;20.80;66.00;;;;;;10534329;28;20753;-62
2021/08/09 02:04:05;;;;;;;0.80;0.80;;;21.30;65.50;;;;;;10570377;28;20199;-62
2021/08/09 02:09:27;;;;;;;0.77;0.77;;;20.90;66.80;;;;;;10576689;28;20225;-62
2021/08/09 02:14:54;;;;;;;0.70;0.70;;;20.70;66.30;;;;;;10535234;28;20428;-63
2021/08/09 02:20:25;;;;;;;0.50;0.50;;;20.70;67.00;;;;;;10534889;28;20211;-62
2021/08/09 02:25:49;;;;;;;0.50;0.50;;;20.60;68.00;;;;;;10493824;28;20211;-62
2021/08/09 02:31:13;;;;;;;1.13;0.70;;;20.60;67.00;;;;;;10502696;28;20418;-62
2021/08/09 02:36:37;;;;;;;1.00;0.70;;;21.10;66.70;;;;;;10500459;28;20427;-61
2021/08/09 02:41:59;;;;;;;0.60;0.57;;;21.00;66.70;;;;;;10495150;28;20699;-63
2021/08/09 02:47:23;;;;;;;0.60;0.60;;;20.80;66.20;;;;;;10493534;28;20195;-63
2021/08/09 02:52:47;;;;;;;0.87;0.60;;;20.60;67.00;;;;;;10492637;28;20435;-62
2021/08/09 02:58:10;;;;;;;0.63;0.63;;;20.70;67.40;;;;;;10494992;28;20223;-62
2021/08/09 03:03:35;;;;;;;1.13;0.80;;;20.60;66.50;;;;;;10493225;28;20200;-62
2021/08/09 03:08:59;;;;;;;0.93;0.60;;;20.60;67.20;;;;;;10506792;28;20228;-63
2021/08/09 03:14:22;;;;;;;1.23;0.70;;;20.50;68.10;;;;;;10497997;28;20195;-62
2021/08/09 03:19:45;;;;;;;0.60;0.50;;;20.50;67.30;;;;;;10499969;28;20288;-63
2021/08/09 03:25:09;;;;;;;0.88;0.80;;;20.50;67.50;;;;;;10532213;28;20925;-63
2021/08/09 03:30:31;;;;;;;0.80;0.67;;;20.60;68.30;;;;;;10530702;28;20224;-62
2021/08/09 03:35:54;;;;;;;1.13;0.80;;;20.50;67.30;;;;;;10545251;28;20188;-62
2021/08/09 03:41:17;;;;;;;2.10;0.77;;;20.50;67.60;;;;;;10540188;28;20197;-62
2021/08/09 03:46:40;;;;;;;0.80;0.50;;;20.50;69.10;;;;;;10517383;28;20228;-63
2021/08/09 03:52:02;;;;;;;0.57;0.57;;;20.50;67.50;;;;;;10499136;28;20394;-62
2021/08/09 03:57:27;;;;;;;0.73;0.60;;;20.50;67.60;;;;;;10510948;28;20480;-62
2021/08/09 04:02:49;;;;;;;0.50;0.50;;;20.60;68.30;;;;;;10581047;28;20191;-62
2021/08/09 04:08:11;;;;;;;0.60;0.60;;;20.60;67.10;;;;;;10575540;28;20952;-62
2021/08/09 04:13:35;;;;;;;0.77;0.70;;;21.00;66.20;;;;;;10531168;28;20421;-62
2021/08/09 04:18:57;;;;;;;0.50;0.50;;;20.90;66.90;;;;;;10540019;28;20674;-60
2021/08/09 04:24:19;;;;;;;0.53;0.53;;;20.70;66.20;;;;;;10536603;28;20199;-62
2021/08/09 04:29:43;;;;;;;0.50;0.50;;;20.60;67.10;;;;;;10550031;28;20195;-63
2021/08/09 04:35:06;;;;;;;0.57;0.53;;;20.50;68.00;;;;;;10581476;28;20666;-61
2021/08/09 04:40:30;;;;;;;0.70;0.70;;;20.50;67.00;;;;;;10578240;28;20404;-62
2021/08/09 04:45:53;;;;;;;0.63;0.60;;;21.10;66.10;;;;;;10517753;28;20294;-62
2021/08/09 04:51:16;;;;;;;0.77;0.67;;;20.80;67.30;;;;;;10577682;28;20241;-61
2021/08/09 04:56:38;;;;;;;0.60;0.53;;;20.60;66.40;;;;;;10527570;28;20418;-62
2021/08/09 05:02:01;;;;;;;0.97;0.80;;;20.80;67.10;;;;;;10496943;28;20201;-62
2021/08/09 05:07:23;;;;;;;0.70;0.50;;;20.60;67.60;;;;;;10496396;28;20249;-63
2021/08/09 05:12:46;;;;;;;0.60;0.60;;;20.60;66.50;;;;;;10518110;28;20214;-63
2021/08/09 05:18:12;;;;;;;0.70;0.70;;;20.60;67.70;;;;;;10497597;28;20222;-62
2021/08/09 05:23:35;;;;;;;0.50;0.50;;;20.50;68.00;;;;;;10522689;28;20192;-63
2021/08/09 05:28:58;;;;;;;0.80;0.70;;;20.50;66.80;;;;;;10538210;28;20243;-63
2021/08/09 05:34:21;;;;;;;0.50;0.50;;;20.50;67.80;;;;;;10561428;28;20226;-62
2021/08/09 05:39:44;;;;;;;0.80;0.60;;;20.50;68.10;;;;;;10555505;28;20569;-62
2021/08/09 05:45:07;;;;;;;0.50;0.50;;;20.50;66.90;;;;;;10538253;28;20570;-63
2021/08/09 05:50:31;;;;;;;0.50;0.50;;;20.50;68.00;;;;;;10533838;28;20937;-62
2021/08/09 05:55:54;;;;;;;0.60;0.60;;;20.90;66.80;;;;;;10536091;28;20399;-62
2021/08/09 06:01:16;;;;;;;0.50;0.47;;;20.70;66.30;;;;;;10534664;28;20454;-62
2021/08/09 06:06:40;;;;;;;0.60;0.60;;;20.60;67.70;;;;;;10527556;28;20877;-62
2021/08/09 06:12:02;;;;;;;0.50;0.50;;;21.00;66.20;;;;;;10539204;28;20292;-61
2021/08/09 06:17:24;;;;;;;0.70;0.65;;;20.80;66.00;;;;;;10489184;28;20407;-61
2021/08/09 06:22:47;;;;;;;1.00;0.60;;;21.30;65.50;;;;;;10512075;28;21021;-62
2021/08/09 06:28:10;;;;;;;0.63;0.63;;;21.20;65.50;;;;;;10535250;28;20758;-62
2021/08/09 06:33:32;;;;;;;1.10;0.73;;;20.80;65.50;;;;;;10512933;28;20189;-62
2021/08/09 06:38:55;;;;;;;0.60;0.60;;;20.70;67.20;;;;;;10550598;28;20416;-62
2021/08/09 06:44:18;;;;;;;0.50;0.40;;;21.00;66.20;;;;;;10554620;28;20443;-63
2021/08/09 06:49:40;;;;;;;0.50;0.50;;;20.70;65.80;;;;;;10529726;28;20223;-62
2021/08/09 06:55:04;;;;;;;0.50;0.50;;;20.60;67.60;;;;;;10535473;28;20659;-63
2021/08/09 07:00:26;;;;;;;0.80;0.60;;;20.50;67.60;;;;;;10531049;28;20216;-63
2021/08/09 07:05:48;;;;;;;0.50;0.50;;;20.50;66.70;;;;;;10492088;28;20201;-62
2021/08/09 07:11:12;;;;;;;0.57;0.50;;;20.50;68.00;;;;;;10513184;28;20211;-62
2021/08/09 07:16:34;;;;;;;0.60;0.60;;;20.50;67.90;;;;;;10493361;28;20691;-62
2021/08/09 07:21:56;;;;;;;0.50;0.50;;;20.40;66.90;;;;;;10506078;28;20200;-60
2021/08/09 07:27:20;;;;;;;1.10;0.57;;;20.40;68.20;;;;;;10504805;28;20205;-60
2021/08/09 07:32:42;;;;;;;0.70;0.63;;;20.40;67.80;;;;;;10491200;28;20426;-62
2021/08/09 07:38:04;;;;;;;0.60;0.60;;;20.70;66.40;;;;;;10492532;28;20219;-61
2021/08/09 07:43:28;;;;;;;0.50;0.50;;;20.50;67.70;;;;;;10491199;28;20798;-61
2021/08/09 07:48:50;;;;;;;0.60;0.60;;;21.10;65.30;;;;;;10492026;28;20208;-61
2021/08/09 07:54:12;;;;;;;0.47;0.40;;;20.80;65.70;;;;;;10524003;28;20200;-62
2021/08/09 07:59:35;;;;;;;0.97;0.60;;;20.60;67.50;;;;;;10519725;28;20219;-62
2021/08/09 08:04:58;;;;;;;0.83;0.50;;;20.50;67.40;;;;;;10541575;28;20203;-63
2021/08/09 08:10:20;;;;;;;0.70;0.60;;;20.50;67.00;;;;;;10540537;28;20224;-62
2021/08/09 08:15:44;;;;;;;0.80;0.53;;;20.50;68.10;;;;;;10530908;28;20559;-63
2021/08/09 08:21:06;;;;;;;0.50;0.50;;;20.50;67.30;;;;;;10504314;28;20215;-62
2021/08/09 08:26:28;;;;;;;0.60;0.60;;;20.50;67.30;;;;;;10538154;28;20465;-62
2021/08/09 08:31:52;;;;;;;0.50;0.50;;;20.50;68.00;;;;;;10539653;28;20224;-62
2021/08/09 08:37:14;;;;;;;0.40;0.40;;;20.50;66.90;;;;;;10568873;28;20662;-62
2021/08/09 08:42:38;;;;;;;0.40;0.40;;;20.50;67.50;;;;;;10579562;28;20450;-62
2021/08/09 08:48:01;;;;;;;0.83;0.70;;;20.70;67.40;;;;;;10579095;28;20469;-67
2021/08/09 08:53:23;;;;;;;52.13;6.13;;;20.90;66.40;;;;;;10562134;28;20199;-63
2021/08/09 08:58:45;;;;;;;35.07;5.90;;;20.60;67.90;;;;;;10497057;28;20220;-63
2021/08/09 09:04:26;;;;;;;50.47;6.88;;;20.60;67.00;;;;;;10494213;28;20418;-63
2021/08/09 09:09:48;;;;;;;34.67;6.07;;;21.10;66.20;;;;;;10512315;28;20878;-64
2021/08/09 09:15:12;;;;;;;27.50;4.17;;;21.30;64.60;;;;;;10538579;28;20596;-64
2021/08/09 09:20:36;;;;;;;30.10;4.73;;;20.90;66.60;;;;;;10534318;28;20821;-63
2021/08/09 09:25:58;;;;;;;26.40;4.37;;;20.90;66.80;;;;;;10502680;28;20792;-63
2021/08/09 09:31:30;;;;;;;15.40;3.40;;;20.70;66.30;;;;;;10579087;28;20211;-63
2021/08/09 09:36:57;;;;;;;13.37;3.03;;;20.60;67.90;;;;;;10577741;28;20199;-63
2021/08/09 09:42:19;;;;;;;14.47;3.27;;;20.50;67.70;;;;;;10579187;28;20183;-63
2021/08/09 09:47:41;;;;;;;9.73;2.87;;;20.50;67.70;;;;;;10525253;28;20228;-63
2021/08/09 09:53:17;;;;;;;20.27;3.00;;;20.50;68.60;;;;;;10494491;28;20204;-63
2021/08/09 09:58:40;;;;;;;17.50;3.37;;;20.50;67.60;;;;;;10494623;28;20205;-63
2021/08/09 10:04:02;;;;;;;16.77;3.47;;;20.40;68.30;;;;;;10493245;28;20422;-63
2021/08/09 10:09:29;;;;;;;11.07;2.47;;;20.70;67.70;;;;;;10509936;28;20474;-62
2021/08/09 10:14:52;;;;;;;12.00;2.73;;;20.60;66.90;;;;;;10536992;28;20222;-64
2021/08/09 10:20:17;;;;;;;10.23;3.38;;;20.50;68.30;;;;;;10524586;28;20463;-63
2021/08/09 10:25:46;;;;;;;10.17;3.13;;;21.00;66.00;;;;;;10492883;28;20199;-62
2021/08/09 10:31:22;;;;;;;10.45;2.70;;;20.70;67.00;;;;;;10488314;28;20438;-63
2021/08/09 10:37:12;;;;;;;9.00;2.30;;;20.70;67.90;;;;;;10551983;28;20594;-63
2021/08/09 10:42:41;;;;;;;6.67;2.10;;;20.60;66.80;;;;;;10573931;28;20783;-63
2021/08/09 10:48:05;;;;;;;8.07;2.50;;;20.50;68.20;;;;;;10521975;28;20228;-62
2021/08/09 10:53:48;;;;;;;7.63;2.43;;;20.50;68.40;;;;;;10501390;28;20435;-63
2021/08/09 10:59:41;;;;;;;6.10;1.80;;;20.70;66.90;;;;;;10494078;28;20583;-62
2021/08/09 11:05:26;;;;;;;7.70;2.55;;;20.50;68.20;;;;;;10503156;28;20967;-63
2021/08/09 11:11:01;;;;;;;8.57;2.22;;;21.10;64.90;;;;;;10494870;28;20523;-63
2021/08/09 11:16:31;;;;;;;7.45;2.47;;;20.90;66.60;;;;;;10490031;28;20427;-63
2021/08/09 11:21:59;;;;;;;5.97;1.90;;;21.00;66.50;;;;;;10504242;28;20222;-63
2021/08/09 11:27:22;;;;;;;6.50;2.03;;;20.70;66.30;;;;;;10550109;28;20211;-63
2021/08/09 11:32:45;;;;;;;5.70;2.25;;;20.60;68.00;;;;;;10573986;28;20418;-62
2021/08/09 11:38:07;;;;;;;5.67;2.07;;;21.10;65.70;;;;;;10548978;28;20216;-62
2021/08/09 11:43:32;;;;;;;3.10;1.87;;;20.80;67.00;;;;;;10499311;28;20192;-62
2021/08/09 11:48:55;;;;;;;5.97;2.08;;;20.60;68.20;;;;;;10499772;28;20426;-63
2021/08/09 11:54:18;;;;;;;4.97;2.00;;;20.50;67.10;;;;;;10499534;28;20583;-63
2021/08/09 11:59:41;;;;;;;3.93;1.97;;;20.60;68.80;;;;;;10567016;28;20218;-62
2021/08/09 12:05:05;;;;;;;5.70;2.25;;;20.60;69.10;;;;;;10581921;28;20499;-62
2021/08/09 12:10:27;;;;;;;7.43;2.10;;;21.00;66.90;;;;;;10563475;28;20434;-61
2021/08/09 12:16:13;;;;;;;8.07;2.27;;;21.10;66.30;;;;;;10499550;28;20575;-63
2021/08/09 12:21:36;;;;;;;5.57;2.07;;;20.90;65.70;;;;;;10509579;28;20215;-60
2021/08/09 12:27:15;;;;;;;4.20;1.70;;;20.80;65.80;;;;;;10516952;28;20211;-64
2021/08/09 12:32:38;;;;;;;4.23;1.67;;;20.80;65.60;;;;;;10529663;28;20202;-64
2021/08/09 12:38:02;;;;;;;3.40;1.47;;;20.70;65.40;;;;;;10538689;28;20691;-64
2021/08/09 12:43:24;;;;;;;2.83;1.47;;;20.70;65.20;;;;;;10537721;28;20209;-64
2021/08/09 12:48:47;;;;;;;3.23;1.47;;;20.70;65.20;;;;;;10510290;28;20223;-64
2021/08/09 12:54:11;;;;;;;2.90;1.30;;;20.70;66.70;;;;;;10531008;28;20281;-64
2021/08/09 12:59:33;;;;;;;2.10;1.00;;;20.70;66.30;;;;;;10539595;28;20208;-65
2021/08/09 13:04:55;;;;;;;2.77;1.43;;;20.70;66.10;;;;;;10539742;28;20192;-65
2021/08/09 13:10:18;;;;;;;3.00;1.43;;;20.60;67.10;;;;;;10507792;28;20224;-65
2021/08/09 13:15:41;;;;;;;1.77;1.03;;;20.60;66.30;;;;;;10497859;28;20189;-65
2021/08/09 13:21:04;;;;;;;2.93;1.40;;;20.70;65.60;;;;;;10503918;28;20570;-64
2021/08/09 13:26:28;;;;;;;3.13;1.30;;;20.60;66.40;;;;;;10529802;28;20700;-64
2021/08/09 13:31:50;;;;;;;3.43;1.40;;;20.60;66.90;;;;;;10518965;28;20222;-65
2021/08/09 13:37:13;;;;;;;2.93;0.87;;;20.60;66.10;;;;;;10540008;28;20211;-64
2021/08/09 13:42:36;;;;;;;1.57;1.00;;;20.60;66.30;;;;;;10537850;28;20192;-64
2021/08/09 13:48:00;;;;;;;1.23;1.10;;;20.50;67.20;;;;;;10569156;28;20210;-64
2021/08/09 13:53:22;;;;;;;1.50;1.00;;;20.50;66.50;;;;;;10578271;28;20226;-64
2021/08/09 13:58:45;;;;;;;1.63;0.73;;;20.60;66.30;;;;;;10576721;28;20633;-65
2021/08/09 14:04:07;;;;;;;2.00;1.20;;;20.50;67.00;;;;;;10577975;28;20592;-64
2021/08/09 14:09:29;;;;;;;1.87;1.07;;;20.50;66.70;;;;;;10497585;28;20718;-63
2021/08/09 14:14:53;;;;;;;1.80;0.83;;;20.60;65.90;;;;;;10494418;28;20201;-64
2021/08/09 14:20:15;;;;;;;1.47;0.87;;;20.50;66.50;;;;;;10494663;28;20184;-64
2021/08/09 14:25:37;;;;;;;1.87;1.10;;;20.50;67.00;;;;;;10493902;28;20713;-65
2021/08/09 14:31:00;;;;;;;2.47;1.13;;;20.50;66.00;;;;;;10502699;28;20218;-65
2021/08/09 14:36:23;;;;;;;1.30;0.90;;;20.50;66.70;;;;;;10527376;28;20207;-63
2021/08/09 14:41:45;;;;;;;3.80;1.23;;;20.50;67.40;;;;;;10526166;28;20662;-63
2021/08/09 14:47:08;;;;;;;7.70;1.17;;;20.60;66.60;;;;;;10543632;28;20195;-63
2021/08/09 14:52:30;;;;;;;8.40;1.20;;;20.60;67.50;;;;;;10526834;28;20196;-63
2021/08/09 14:57:53;;;;;;;4.33;1.07;;;20.50;67.50;;;;;;10556027;28;20641;-64
2021/08/09 15:03:16;;;;;;;6.33;1.20;;;20.60;67.00;;;;;;10534746;28;20558;-64
2021/08/09 15:08:38;;;;;;;7.03;1.20;;;20.60;67.80;;;;;;10538462;28;20219;-64
2021/08/09 15:14:00;;;;;;;5.67;1.27;;;20.60;67.30;;;;;;10536621;28;20195;-64
2021/08/09 15:19:24;;;;;;;5.37;1.43;;;20.60;67.50;;;;;;10522481;28;20219;-64
2021/08/09 15:24:46;;;;;;;4.60;1.13;;;20.60;68.00;;;;;;10533446;28;20273;-64
2021/08/09 15:30:08;;;;;;;4.60;1.23;;;20.60;67.00;;;;;;10526498;28;20219;-64
2021/08/09 15:35:32;;;;;;;5.63;1.00;;;20.60;67.50;;;;;;10522638;28;20195;-65
2021/08/09 15:40:54;;;;;;;6.00;1.27;;;20.60;67.90;;;;;;10540820;28;20203;-64
2021/08/09 15:46:19;;;;;;;3.07;0.93;;;20.70;67.00;;;;;;10516349;28;20199;-65
2021/08/09 15:51:42;;;;;;;4.63;1.00;;;20.70;67.80;;;;;;10509412;28;20219;-64
2021/08/09 15:57:04;;;;;;;2.83;0.90;;;20.70;68.10;;;;;;10569862;28;20193;-64
2021/08/09 16:02:27;;;;;;;1.63;1.00;;;20.70;67.00;;;;;;10574018;28;20674;-64
2021/08/09 16:07:50;;;;;;;1.23;0.70;;;20.70;67.30;;;;;;10492497;28;20219;-64
2021/08/09 16:13:12;;;;;;;3.10;0.93;;;20.60;67.90;;;;;;10509189;28;20211;-64
2021/08/09 16:18:35;;;;;;;2.33;1.00;;;20.60;67.00;;;;;;10575563;28;20264;-64
2021/08/09 16:23:59;;;;;;;1.50;0.90;;;20.70;66.20;;;;;;10516797;28;20228;-64
2021/08/09 16:29:21;;;;;;;1.63;0.80;;;20.60;67.30;;;;;;10525140;28;20570;-64
2021/08/09 16:34:43;;;;;;;1.57;0.90;;;20.60;67.30;;;;;;10530851;28;20203;-64
2021/08/09 16:40:08;;;;;;;1.93;0.60;;;20.60;66.30;;;;;;10539215;28;20204;-64
2021/08/09 16:45:31;;;;;;;1.40;0.90;;;20.60;66.80;;;;;;10537053;28;20205;-64
2021/08/09 16:50:53;;;;;;;2.50;1.03;;;20.60;67.50;;;;;;10531114;28;20226;-64
2021/08/09 16:56:17;;;;;;;3.10;0.90;;;20.60;66.70;;;;;;10543633;28;20184;-64
2021/08/09 17:01:39;;;;;;;1.97;0.80;;;20.60;66.40;;;;;;10527992;28;20200;-64
2021/08/09 17:07:01;;;;;;;2.50;0.93;;;20.60;67.40;;;;;;10531751;28;20187;-64
2021/08/09 17:12:26;;;;;;;2.13;0.90;;;20.50;66.90;;;;;;10555809;28;20741;-64
2021/08/09 17:17:48;;;;;;;0.70;0.67;;;20.60;66.10;;;;;;10581267;28;20218;-64
2021/08/09 17:23:12;;;;;;;0.93;0.60;;;20.50;67.00;;;;;;10521837;28;20188;-64
2021/08/09 17:28:35;;;;;;;2.50;0.80;;;20.60;67.00;;;;;;10505283;28;20216;-64
2021/08/09 17:33:57;;;;;;;1.00;0.67;;;20.60;66.60;;;;;;10520443;28;20195;-64
2021/08/09 17:39:19;;;;;;;1.10;0.80;;;20.60;67.40;;;;;;10526076;28;20211;-64
2021/08/09 17:44:43;;;;;;;1.07;0.57;;;20.60;66.80;;;;;;10536316;28;20184;-64
2021/08/09 17:50:06;;;;;;;1.77;0.70;;;20.60;66.50;;;;;;10536140;28;20226;-64
2021/08/09 17:55:28;;;;;;;1.40;0.87;;;20.60;67.40;;;;;;10566414;28;20195;-64
2021/08/09 18:00:52;;;;;;;2.17;0.60;;;20.60;66.70;;;;;;10568565;28;20200;-64
2021/08/09 18:06:14;;;;;;;1.07;0.70;;;20.60;66.80;;;;;;10495390;28;20193;-64
2021/08/09 18:11:36;;;;;;;0.97;0.60;;;20.60;67.50;;;;;;10494207;28;20239;-64
2021/08/09 18:16:59;;;;;;;1.67;0.73;;;20.60;66.70;;;;;;10497338;28;20192;-64
2021/08/09 18:22:21;;;;;;;1.40;0.70;;;20.60;66.40;;;;;;10525675;28;20193;-64
2021/08/09 18:27:44;;;;;;;1.13;0.60;;;20.60;67.30;;;;;;10523279;28;20216;-65
2021/08/09 18:33:08;;;;;;;0.90;0.63;;;20.60;66.80;;;;;;10534266;28;20199;-65
2021/08/09 18:38:31;;;;;;;1.17;0.60;;;20.60;66.40;;;;;;10535120;28;20291;-65
2021/08/09 18:43:53;;;;;;;1.23;0.80;;;20.60;67.20;;;;;;10569383;28;20758;-64
2021/08/09 18:49:17;;;;;;;1.50;0.80;;;20.60;66.90;;;;;;10576269;28;20700;-65
2021/08/09 18:54:40;;;;;;;0.60;0.50;;;20.60;66.00;;;;;;10571216;28;20340;-64
2021/08/09 19:00:02;;;;;;;0.83;0.60;;;20.60;67.00;;;;;;10555155;28;20231;-65
2021/08/09 19:05:28;;;;;;;0.53;0.53;;;20.50;67.00;;;;;;10522778;28;20239;-64
2021/08/09 19:10:50;;;;;;;0.80;0.70;;;20.60;66.10;;;;;;10565880;28;20257;-64
2021/08/09 19:16:13;;;;;;;0.67;0.60;;;20.60;66.90;;;;;;10566561;28;20196;-65
2021/08/09 19:21:36;;;;;;;0.60;0.50;;;20.50;67.10;;;;;;10505626;28;20214;-64
2021/08/09 19:26:59;;;;;;;0.70;0.60;;;20.60;66.30;;;;;;10528145;28;20577;-65
2021/08/09 19:32:21;;;;;;;0.70;0.70;;;20.60;66.70;;;;;;10523409;28;20216;-64
2021/08/09 19:37:45;;;;;;;1.77;0.77;;;20.60;67.20;;;;;;10490149;28;20281;-64
2021/08/09 19:43:08;;;;;;;1.70;0.70;;;20.60;66.50;;;;;;10549096;28;20426;-64
2021/08/09 19:48:30;;;;;;;1.87;0.60;;;21.00;65.20;;;;;;10529659;28;20239;-64
2021/08/09 19:53:54;;;;;;;0.87;0.67;;;20.80;66.40;;;;;;10516535;28;20195;-64
2021/08/09 19:59:16;;;;;;;0.83;0.60;;;20.70;65.70;;;;;;10538515;28;20227;-64
2021/08/09 20:04:41;;;;;;;0.80;0.60;;;20.70;66.10;;;;;;10541317;28;20278;-64
2021/08/09 20:10:06;;;;;;;0.70;0.60;;;20.60;67.00;;;;;;10535209;28;20285;-64
2021/08/09 20:15:28;;;;;;;0.80;0.80;;;20.60;65.90;;;;;;10523359;28;20280;-64
2021/08/09 20:20:51;;;;;;;0.53;0.53;;;20.70;66.50;;;;;;10540350;28;20689;-64
2021/08/09 20:26:14;;;;;;;0.83;0.53;;;20.60;67.00;;;;;;10526343;28;20192;-64
2021/08/09 20:31:36;;;;;;;0.80;0.67;;;20.60;66.10;;;;;;10513641;28;20242;-64
2021/08/09 20:36:58;;;;;;;0.77;0.50;;;20.70;66.10;;;;;;10540611;28;20191;-64
2021/08/09 20:42:22;;;;;;;0.90;0.57;;;20.60;66.70;;;;;;10530317;28;20559;-64
2021/08/09 20:47:44;;;;;;;2.53;0.77;;;20.60;66.40;;;;;;10536161;28;20238;-64
2021/08/09 20:53:07;;;;;;;0.97;0.70;;;20.60;66.00;;;;;;10537788;28;20685;-64
2021/08/09 20:58:30;;;;;;;0.60;0.40;;;20.60;66.90;;;;;;10537874;28;20214;-64
2021/08/09 21:03:53;;;;;;;0.80;0.53;;;20.60;66.50;;;;;;10530404;28;20200;-64
2021/08/09 21:09:16;;;;;;;0.77;0.70;;;20.60;65.70;;;;;;10536845;28;20314;-64
2021/08/09 21:14:39;;;;;;;1.07;0.67;;;20.60;66.50;;;;;;10534627;28;20204;-64
2021/08/09 21:20:02;;;;;;;0.90;0.70;;;20.60;66.80;;;;;;10539884;28;20216;-64
2021/08/09 21:25:24;;;;;;;1.13;0.43;;;20.60;65.80;;;;;;10538203;28;20188;-64
2021/08/09 21:30:48;;;;;;;0.73;0.53;;;20.60;65.30;;;;;;10536567;28;20219;-64
2021/08/09 21:36:10;;;;;;;0.60;0.60;;;20.60;66.50;;;;;;10534727;28;20183;-64
2021/08/09 21:41:32;;;;;;;0.90;0.73;;;20.60;66.30;;;;;;10533566;28;20216;-63
2021/08/09 21:46:56;;;;;;;0.70;0.60;;;20.60;66.20;;;;;;10533574;28;20314;-64
2021/08/09 21:52:18;;;;;;;0.70;0.60;;;20.60;66.40;;;;;;10534515;28;20206;-64
2021/08/09 21:57:40;;;;;;;0.67;0.50;;;20.60;66.80;;;;;;10539686;28;20211;-64
2021/08/09 22:03:04;;;;;;;0.50;0.50;;;20.60;65.80;;;;;;10532493;28;20415;-64
2021/08/09 22:08:26;;;;;;;0.60;0.60;;;20.60;64.80;;;;;;10535796;28;20438;-64
2021/08/09 22:13:48;;;;;;;0.80;0.70;;;20.60;65.90;;;;;;10534596;28;20183;-64
2021/08/09 22:19:12;;;;;;;1.10;0.70;;;20.60;66.20;;;;;;10538600;28;20208;-64
2021/08/09 22:24:34;;;;;;;0.50;0.50;;;20.60;65.60;;;;;;10535125;28;20198;-64
2021/08/09 22:29:56;;;;;;;0.87;0.53;;;20.60;66.70;;;;;;10565542;28;20430;-64
2021/08/09 22:35:20;;;;;;;0.87;0.60;;;21.10;64.60;;;;;;10513249;28;20421;-65
2021/08/09 22:40:42;;;;;;;0.80;0.67;;;20.90;64.60;;;;;;10494031;28;20209;-64
2021/08/09 22:46:04;;;;;;;1.27;0.70;;;20.70;65.70;;;;;;10496276;28;20200;-64
2021/08/09 22:51:28;;;;;;;0.90;0.63;;;20.60;66.40;;;;;;10559172;28;20601;-64
2021/08/09 22:56:50;;;;;;;0.60;0.57;;;20.60;65.70;;;;;;10576037;28;20198;-64
2021/08/09 23:02:12;;;;;;;0.53;0.53;;;20.60;65.00;;;;;;10493933;28;20216;-64
2021/08/09 23:07:36;;;;;;;0.60;0.60;;;20.60;66.10;;;;;;10553725;28;20539;-64
2021/08/09 23:12:58;;;;;;;0.77;0.50;;;20.50;66.20;;;;;;10553466;28;20673;-64
2021/08/09 23:18:20;;;;;;;0.40;0.40;;;20.60;65.40;;;;;;10514863;28;20218;-64
2021/08/09 23:23:44;;;;;;;0.40;0.40;;;20.60;66.60;;;;;;10542589;28;20199;-64
2021/08/09 23:29:06;;;;;;;0.90;0.40;;;20.60;66.50;;;;;;10573492;28;20218;-64
2021/08/09 23:34:28;;;;;;;0.70;0.50;;;20.60;65.80;;;;;;10518891;28;20695;-64
2021/08/09 23:39:52;;;;;;;0.73;0.63;;;20.60;66.50;;;;;;10560349;28;20567;-64
2021/08/09 23:45:14;;;;;;;0.80;0.60;;;20.50;66.80;;;;;;10524129;28;20192;-64
2021/08/09 23:50:36;;;;;;;1.70;0.60;;;20.60;65.90;;;;;;10511690;28;20223;-65
2021/08/09 23:56:00;;;;;;;0.70;0.60;;;20.60;65.80;;;;;;10513863;28;20571;-64
